Time;durP1;ratioP1;P1;durP2;ratioP2;P2;SDS_P1;SDS_P2;PMS_P1;PMS_P2;Temp;Humidity;BMP_temperature;BMP_pressure;BME280_temperature;BME280_humidity;BME280_pressure;Samples;Min_cycle;Max_cycle;Signal;HPM_P1;HPM_P2
2022/05/20 00:00:35;;;;;;;0.13;0.13;;;12.50;99.90;;;;;;5064197;28;20631;-90
2022/05/20 00:03:01;;;;;;;0.15;0.15;;;12.50;99.90;;;;;;5065341;28;20055;-91
2022/05/20 00:05:27;;;;;;;0.10;0.10;;;12.50;99.90;;;;;;5064081;28;20485;-91
2022/05/20 00:07:54;;;;;;;0.25;0.25;;;12.40;99.90;;;;;;5048664;28;20043;-91
2022/05/20 00:10:20;;;;;;;0.20;0.20;;;12.40;99.90;;;;;;5067971;28;20539;-91
2022/05/20 00:12:47;;;;;;;0.35;0.35;;;12.30;99.90;;;;;;5067034;28;20044;-91
2022/05/20 00:15:18;;;;;;;0.10;0.10;;;12.20;99.90;;;;;;5050149;28;20128;-91
2022/05/20 00:17:44;;;;;;;0.10;0.10;;;12.10;99.90;;;;;;5050144;28;20130;-91
2022/05/20 00:20:12;;;;;;;0.10;0.10;;;12.10;99.90;;;;;;5066687;28;20044;-82
2022/05/20 00:22:38;;;;;;;0.30;0.30;;;12.00;99.90;;;;;;5054483;28;20048;-82
2022/05/20 00:27:50;;;;;;;0.10;0.10;;;11.70;99.90;;;;;;5069741;28;20058;-81
2022/05/20 00:30:15;;;;;;;0.10;0.10;;;11.70;99.90;;;;;;5057783;28;20036;-81
2022/05/20 00:32:41;;;;;;;0.17;0.17;;;11.60;99.90;;;;;;5070309;28;20143;-81
2022/05/20 00:35:08;;;;;;;0.10;0.10;;;11.50;99.90;;;;;;5049915;28;20064;-82
2022/05/20 00:37:34;;;;;;;0.10;0.10;;;11.50;99.90;;;;;;5056895;28;20493;-82
2022/05/20 00:40:00;;;;;;;0.13;0.13;;;11.30;99.90;;;;;;5051569;28;20044;-82
2022/05/20 00:42:26;;;;;;;0.43;0.30;;;11.30;99.90;;;;;;5069501;28;20043;-82
2022/05/20 00:44:51;;;;;;;0.10;0.10;;;11.30;99.90;;;;;;5052747;28;20044;-82
2022/05/20 00:47:17;;;;;;;0.00;0.00;;;11.20;99.90;;;;;;5069067;28;20069;-81
2022/05/20 00:49:52;;;;;;;0.20;0.20;;;11.10;99.90;;;;;;5036867;28;20043;-82
2022/05/20 00:52:21;;;;;;;0.20;0.20;;;11.20;99.90;;;;;;5068329;28;21264;-82
2022/05/20 00:54:50;;;;;;;0.20;0.20;;;11.20;99.90;;;;;;5069316;28;20036;-82
2022/05/20 00:57:21;;;;;;;0.10;0.10;;;11.30;99.90;;;;;;5054161;28;20040;-82
2022/05/20 00:59:55;;;;;;;0.15;0.15;;;11.40;99.90;;;;;;5056444;28;20115;-82
2022/05/20 01:02:25;;;;;;;0.32;0.22;;;11.50;99.90;;;;;;5051813;28;20032;-82
2022/05/20 01:04:56;;;;;;;0.10;0.10;;;11.50;99.90;;;;;;5068927;28;20428;-82
2022/05/20 01:07:22;;;;;;;0.93;0.35;;;11.60;99.90;;;;;;5067763;28;20097;-82
2022/05/20 01:09:48;;;;;;;0.10;0.10;;;11.60;99.90;;;;;;5054623;28;20505;-89
2022/05/20 01:12:14;;;;;;;0.25;0.25;;;11.70;99.90;;;;;;5068178;28;20072;-89
2022/05/20 01:14:40;;;;;;;5.47;1.27;;;11.70;99.90;;;;;;5069437;28;20039;-88
2022/05/20 01:17:08;;;;;;;0.05;0.05;;;11.70;99.90;;;;;;5055136;28;20100;-89
2022/05/20 01:19:39;;;;;;;0.25;0.25;;;11.80;99.90;;;;;;5053296;28;20047;-89
2022/05/20 01:22:08;;;;;;;0.10;0.10;;;11.80;99.90;;;;;;5048427;28;20082;-89
2022/05/20 01:24:34;;;;;;;0.52;0.43;;;11.80;99.90;;;;;;5066136;28;20039;-89
2022/05/20 01:27:00;;;;;;;0.20;0.20;;;11.90;99.90;;;;;;5037404;28;20042;-89
2022/05/20 01:29:26;;;;;;;0.15;0.13;;;11.90;99.90;;;;;;5033213;28;20510;-89
2022/05/20 01:31:52;;;;;;;0.20;0.20;;;11.90;99.90;;;;;;5066655;28;20041;-89
2022/05/20 01:34:18;;;;;;;0.35;0.35;;;11.90;99.90;;;;;;5068236;28;20089;-89
2022/05/20 01:36:44;;;;;;;0.10;0.10;;;12.00;99.90;;;;;;5036816;28;20048;-89
2022/05/20 01:39:09;;;;;;;0.10;0.10;;;12.00;99.90;;;;;;5066411;28;20371;-89
2022/05/20 01:41:45;;;;;;;0.80;0.30;;;12.00;99.90;;;;;;5052437;28;20032;-89
2022/05/20 01:44:29;;;;;;;0.32;0.32;;;12.00;99.90;;;;;;5068055;28;20036;-82
2022/05/20 01:47:16;;;;;;;0.30;0.30;;;12.00;99.90;;;;;;5069081;28;20051;-82
2022/05/20 01:49:49;;;;;;;0.20;0.20;;;12.00;99.90;;;;;;5067764;28;20036;-82
2022/05/20 01:52:23;;;;;;;0.88;0.45;;;12.00;99.90;;;;;;5067022;28;20036;-82
2022/05/20 01:55:15;;;;;;;0.15;0.15;;;12.00;99.90;;;;;;5063734;28;20075;-83
2022/05/20 01:57:53;;;;;;;0.10;0.10;;;12.00;99.90;;;;;;5065558;28;20047;-82
2022/05/20 02:00:22;;;;;;;0.35;0.25;;;12.00;99.90;;;;;;5066790;28;20040;-82
2022/05/20 02:03:03;;;;;;;0.50;0.50;;;12.00;99.90;;;;;;5064765;28;20039;-82
2022/05/20 02:05:40;;;;;;;0.00;0.00;;;11.90;99.90;;;;;;5065635;28;20375;-82
2022/05/20 02:08:14;;;;;;;0.10;0.10;;;11.80;99.90;;;;;;5066083;28;21695;-82
2022/05/20 02:10:51;;;;;;;0.10;0.10;;;11.80;99.90;;;;;;5048653;28;20090;-82
2022/05/20 02:13:18;;;;;;;0.10;0.10;;;11.70;99.90;;;;;;5064561;28;20083;-82
2022/05/20 02:15:53;;;;;;;1.88;1.73;;;11.60;99.90;;;;;;5049267;28;20048;-89
2022/05/20 02:18:35;;;;;;;0.28;0.28;;;11.50;99.90;;;;;;5066572;28;20119;-88
2022/05/20 02:21:09;;;;;;;0.47;0.47;;;11.40;99.90;;;;;;5048895;28;20895;-89
2022/05/20 02:23:39;;;;;;;0.93;0.30;;;11.40;99.90;;;;;;5067273;28;20044;-88
2022/05/20 02:26:10;;;;;;;0.10;0.10;;;11.30;99.90;;;;;;5066376;28;20092;-89
2022/05/20 02:28:52;;;;;;;0.10;0.10;;;11.30;99.90;;;;;;5066712;28;20040;-89
2022/05/20 02:31:24;;;;;;;0.00;0.00;;;11.30;99.90;;;;;;5053009;28;20036;-89
2022/05/20 02:33:51;;;;;;;0.00;0.00;;;11.30;99.90;;;;;;5072826;22;20033;-82
2022/05/20 02:36:25;;;;;;;0.60;0.60;;;11.30;99.90;;;;;;5048034;28;20159;-82
2022/05/20 02:38:51;;;;;;;0.10;0.10;;;11.30;99.90;;;;;;5049002;28;20044;-82
2022/05/20 02:41:17;;;;;;;0.00;0.00;;;11.30;99.90;;;;;;5046004;28;20372;-82
2022/05/20 02:43:43;;;;;;;1.15;0.22;;;11.30;99.90;;;;;;5028378;28;20045;-82
2022/05/20 02:46:09;;;;;;;0.13;0.13;;;11.20;99.90;;;;;;5047144;28;20123;-82
2022/05/20 02:48:36;;;;;;;0.32;0.20;;;11.20;99.90;;;;;;5047415;28;20074;-82
2022/05/20 02:51:02;;;;;;;0.52;0.52;;;11.30;99.90;;;;;;5047354;28;20051;-82
2022/05/20 02:53:28;;;;;;;0.13;0.13;;;11.20;99.90;;;;;;5031431;28;20441;-82
2022/05/20 02:55:54;;;;;;;0.43;0.43;;;11.10;99.90;;;;;;5047521;28;20041;-81
2022/05/20 03:04:10;;;;;;;0.00;0.00;;;10.90;99.90;;;;;;5046630;28;20406;-82
2022/05/20 03:06:40;;;;;;;0.00;0.00;;;10.90;99.90;;;;;;5033983;28;20040;-90
2022/05/20 03:09:07;;;;;;;0.40;0.40;;;10.80;99.90;;;;;;5047131;28;20048;-90
2022/05/20 03:11:34;;;;;;;0.32;0.10;;;10.70;99.90;;;;;;5062291;28;20490;-90
2022/05/20 03:14:04;;;;;;;0.20;0.20;;;10.70;99.90;;;;;;5029182;28;20393;-90
2022/05/20 03:16:31;;;;;;;0.17;0.17;;;10.70;99.90;;;;;;5064035;28;20037;-90
2022/05/20 03:18:57;;;;;;;0.57;0.38;;;10.60;99.90;;;;;;5047777;28;20041;-90
2022/05/20 03:21:23;;;;;;;0.35;0.35;;;10.50;99.90;;;;;;5030410;28;21279;-90
2022/05/20 03:23:49;;;;;;;0.00;0.00;;;10.50;99.90;;;;;;5047051;28;20044;-90
2022/05/20 03:26:15;;;;;;;0.00;0.00;;;10.40;99.90;;;;;;5031640;28;20389;-90
2022/05/20 03:28:43;;;;;;;0.43;0.43;;;10.40;99.90;;;;;;5047767;28;20051;-90
2022/05/20 03:31:09;;;;;;;0.13;0.13;;;10.30;99.90;;;;;;5047632;28;20052;-90
2022/05/20 03:33:36;;;;;;;0.25;0.25;;;10.50;99.90;;;;;;5048235;28;20051;-89
2022/05/20 03:36:03;;;;;;;0.25;0.25;;;10.20;99.90;;;;;;5031215;28;20127;-90
2022/05/20 03:38:30;;;;;;;0.10;0.10;;;10.20;99.90;;;;;;5047790;28;20032;-90
2022/05/20 03:40:56;;;;;;;0.10;0.10;;;10.20;99.90;;;;;;5046047;28;20032;-82
2022/05/20 03:43:23;;;;;;;0.30;0.30;;;10.10;99.90;;;;;;5042056;28;20032;-82
2022/05/20 03:45:48;;;;;;;0.25;0.25;;;10.20;99.90;;;;;;5031207;28;20550;-82
2022/05/20 03:48:14;;;;;;;0.10;0.10;;;10.20;99.90;;;;;;5046006;28;20119;-82
2022/05/20 03:50:40;;;;;;;0.20;0.20;;;10.20;99.90;;;;;;5030628;28;20052;-82
2022/05/20 03:53:06;;;;;;;0.00;0.00;;;10.20;99.90;;;;;;5046206;28;20048;-83
2022/05/20 03:55:31;;;;;;;0.17;0.17;;;10.20;99.90;;;;;;5015884;28;20101;-90
2022/05/20 03:57:57;;;;;;;0.40;0.40;;;10.30;99.90;;;;;;5047874;28;20470;-90
2022/05/20 04:00:23;;;;;;;0.20;0.20;;;10.40;99.90;;;;;;5050611;28;20154;-91
2022/05/20 04:02:49;;;;;;;1.88;0.63;;;10.40;99.90;;;;;;5049535;28;20123;-91
2022/05/20 04:05:14;;;;;;;0.10;0.10;;;10.40;99.90;;;;;;5035393;28;20040;-90
2022/05/20 04:07:40;;;;;;;0.47;0.47;;;10.40;99.90;;;;;;5048397;28;20086;-90
2022/05/20 04:10:07;;;;;;;0.00;0.00;;;10.50;99.90;;;;;;5034409;28;20040;-91
2022/05/20 04:12:40;;;;;;;1.10;0.28;;;10.50;99.90;;;;;;5033516;28;20079;-90
2022/05/20 04:15:09;;;;;;;0.30;0.30;;;10.50;99.90;;;;;;5048091;28;20103;-90
2022/05/20 04:17:35;;;;;;;0.10;0.10;;;10.50;99.90;;;;;;5048002;28;20075;-90
2022/05/20 04:20:01;;;;;;;0.10;0.10;;;10.40;99.90;;;;;;5030315;28;20067;-90
2022/05/20 04:22:35;;;;;;;0.10;0.10;;;10.40;99.90;;;;;;5065908;28;20111;-89
2022/05/20 04:25:03;;;;;;;0.10;0.10;;;10.40;99.90;;;;;;5052370;28;20589;-90
2022/05/20 04:27:29;;;;;;;0.10;0.10;;;10.40;99.90;;;;;;5050116;28;20482;-90
2022/05/20 04:29:56;;;;;;;0.40;0.40;;;10.50;99.90;;;;;;5051285;28;20486;-90
2022/05/20 04:32:22;;;;;;;0.40;0.40;;;10.50;99.90;;;;;;5048867;28;20045;-91
2022/05/20 04:34:48;;;;;;;0.20;0.20;;;10.50;99.90;;;;;;5049684;28;21215;-90
2022/05/20 04:37:14;;;;;;;0.20;0.20;;;10.50;99.90;;;;;;5046368;28;20463;-90
2022/05/20 04:39:40;;;;;;;0.20;0.20;;;10.50;99.90;;;;;;5033811;28;20040;-90
2022/05/20 04:47:39;;;;;;;0.65;0.55;;;10.50;99.90;;;;;;5035979;28;20048;-81
2022/05/20 04:50:06;;;;;;;18.25;1.20;;;10.50;99.90;;;;;;5048700;28;20080;-82
2022/05/20 04:52:31;;;;;;;0.57;0.57;;;10.50;99.90;;;;;;5046334;28;20390;-81
2022/05/20 04:54:57;;;;;;;0.40;0.40;;;10.60;99.90;;;;;;5049812;28;20069;-82
2022/05/20 04:57:30;;;;;;;0.20;0.20;;;10.60;99.90;;;;;;5047515;28;20051;-82
2022/05/20 05:00:00;;;;;;;0.88;0.85;;;10.70;99.90;;;;;;5045216;28;20040;-82
2022/05/20 05:02:26;;;;;;;0.35;0.35;;;10.80;99.90;;;;;;5031509;28;20130;-90
2022/05/20 05:04:54;;;;;;;1.25;0.45;;;10.90;99.90;;;;;;5047782;28;20028;-90
2022/05/20 05:07:19;;;;;;;0.52;0.35;;;11.10;99.90;;;;;;5048412;28;20036;-93
2022/05/20 05:09:45;;;;;;;0.38;0.32;;;11.20;99.90;;;;;;5036224;28;20398;-92
2022/05/20 05:12:12;;;;;;;0.65;0.65;;;11.30;99.90;;;;;;5016599;28;20063;-91
2022/05/20 05:14:40;;;;;;;0.10;0.10;;;11.50;99.90;;;;;;5036001;28;20036;-92
2022/05/20 05:17:08;;;;;;;0.47;0.47;;;11.60;99.90;;;;;;5049940;28;20040;-92
2022/05/20 05:19:39;;;;;;;2.75;0.50;;;11.70;99.90;;;;;;5048500;28;20036;-92
2022/05/20 05:22:06;;;;;;;0.38;0.28;;;12.00;99.90;;;;;;5050884;28;20044;-96
2022/05/20 05:24:33;;;;;;;0.35;0.35;;;12.50;99.90;;;;;;5022599;28;20033;-95
2022/05/20 05:26:59;;;;;;;0.55;0.55;;;12.90;99.90;;;;;;5056985;28;20387;-93
2022/05/20 05:29:25;;;;;;;0.65;0.65;;;13.40;99.90;;;;;;5054651;28;20049;-94
2022/05/20 05:31:51;;;;;;;1.50;1.40;;;13.80;99.90;;;;;;5046829;28;20036;-96
2022/05/20 05:34:17;;;;;;;0.55;0.55;;;14.30;99.90;;;;;;5039383;28;20486;-93
2022/05/20 05:36:43;;;;;;;0.43;0.43;;;14.70;99.90;;;;;;5043715;28;20094;-94
2022/05/20 05:39:08;;;;;;;0.43;0.30;;;15.10;99.90;;;;;;5022612;28;20113;-94
2022/05/20 05:41:35;;;;;;;0.38;0.38;;;15.30;99.90;;;;;;5038961;28;20040;-94
2022/05/20 05:44:03;;;;;;;0.00;0.00;;;15.80;99.90;;;;;;5039592;28;20470;-95
2022/05/20 05:46:30;;;;;;;0.10;0.10;;;16.30;99.90;;;;;;5037969;28;20066;-93
2022/05/20 05:48:57;;;;;;;0.10;0.10;;;16.70;99.90;;;;;;5069604;28;20101;-95
2022/05/20 05:51:25;;;;;;;0.32;0.32;;;17.10;99.90;;;;;;5036371;28;20494;-95
2022/05/20 05:53:51;;;;;;;0.60;0.60;;;17.30;99.90;;;;;;5065678;28;20105;-95
2022/05/20 05:56:27;;;;;;;0.28;0.28;;;17.30;99.90;;;;;;5039584;28;20486;-96
2022/05/20 05:58:53;;;;;;;0.43;0.38;;;17.80;99.90;;;;;;5043129;28;20100;-96
2022/05/20 06:01:22;;;;;;;0.52;0.38;;;18.00;99.90;;;;;;4993874;28;20426;-96
2022/05/20 06:03:48;;;;;;;3.17;0.30;;;18.30;99.90;;;;;;5053415;28;20036;-96
2022/05/20 06:06:14;;;;;;;0.28;0.28;;;18.20;99.90;;;;;;5021046;28;20087;-94
2022/05/20 06:08:39;;;;;;;0.22;0.22;;;18.50;99.90;;;;;;5057161;28;20049;-96
2022/05/20 06:11:06;;;;;;;0.20;0.20;;;19.10;99.90;;;;;;5038651;28;20040;-91
2022/05/20 06:13:35;;;;;;;0.10;0.10;;;19.10;99.90;;;;;;5033180;28;20048;-94
2022/05/20 06:16:00;;;;;;;0.10;0.10;;;19.70;99.90;;;;;;5034140;28;20374;-94
2022/05/20 06:18:27;;;;;;;0.00;0.00;;;20.10;99.90;;;;;;5068004;28;20391;-95
2022/05/20 06:20:53;;;;;;;0.00;0.00;;;20.30;99.90;;;;;;5055589;28;20037;-95
2022/05/20 06:23:19;;;;;;;0.30;0.30;;;20.60;99.90;;;;;;5036384;28;20029;-94
2022/05/20 06:25:45;;;;;;;0.10;0.10;;;20.30;99.90;;;;;;5039627;28;20501;-87
2022/05/20 06:28:14;;;;;;;0.32;0.32;;;19.70;99.90;;;;;;5049790;28;20106;-86
2022/05/20 06:30:41;;;;;;;3.03;0.47;;;19.40;99.90;;;;;;5046321;28;20045;-87
2022/05/20 06:33:07;;;;;;;0.10;0.10;;;19.00;99.90;;;;;;5030942;28;20033;-86
2022/05/20 06:41:03;;;;;;;0.57;0.57;;;18.10;99.90;;;;;;5052975;28;20040;-92
2022/05/20 06:43:29;;;;;;;0.20;0.20;;;18.00;99.90;;;;;;5047629;28;20208;-86
2022/05/20 06:45:57;;;;;;;0.10;0.10;;;18.20;99.90;;;;;;5047113;28;20059;-86
2022/05/20 06:48:35;;;;;;;0.20;0.20;;;18.50;99.90;;;;;;5049072;28;20079;-86
2022/05/20 06:51:04;;;;;;;0.63;0.63;;;19.00;99.90;;;;;;5047098;28;20474;-86
2022/05/20 06:53:30;;;;;;;0.30;0.30;;;18.90;99.90;;;;;;5048530;28;20036;-87
2022/05/20 06:55:55;;;;;;;0.13;0.13;;;19.50;99.90;;;;;;5045937;28;20478;-86
2022/05/20 06:58:21;;;;;;;0.15;0.15;;;20.00;99.90;;;;;;5033628;28;20058;-86
2022/05/20 07:00:46;;;;;;;0.10;0.10;;;20.30;99.90;;;;;;5019583;28;20036;-92
2022/05/20 07:03:12;;;;;;;0.45;0.45;;;20.60;99.90;;;;;;5046643;28;20383;-92
2022/05/20 07:05:38;;;;;;;0.43;0.43;;;20.20;99.90;;;;;;5046734;28;20097;-92
2022/05/20 07:08:04;;;;;;;0.35;0.35;;;20.00;99.90;;;;;;5032954;28;20052;-91
2022/05/20 07:10:29;;;;;;;1.08;0.52;;;20.20;99.90;;;;;;5048171;28;20114;-90
2022/05/20 07:12:55;;;;;;;0.10;0.10;;;20.90;99.90;;;;;;5047139;28;20055;-90
2022/05/20 07:15:21;;;;;;;0.30;0.30;;;21.70;99.90;;;;;;5032253;28;20049;-89
2022/05/20 07:17:48;;;;;;;0.10;0.10;;;22.30;99.90;;;;;;5047513;28;20398;-87
2022/05/20 07:20:14;;;;;;;0.68;0.68;;;22.80;99.80;;;;;;5046013;28;20028;-86
2022/05/20 07:22:39;;;;;;;0.10;0.10;;;23.10;96.80;;;;;;5061229;28;20068;-86
2022/05/20 07:25:05;;;;;;;0.20;0.20;;;23.30;97.10;;;;;;5029091;28;20865;-87
2022/05/20 07:27:31;;;;;;;0.10;0.10;;;23.40;97.20;;;;;;5045252;28;20069;-88
2022/05/20 07:29:57;;;;;;;0.20;0.20;;;23.30;94.90;;;;;;5046728;28;20138;-88
2022/05/20 07:32:23;;;;;;;0.20;0.20;;;23.50;95.90;;;;;;5030008;28;20040;-86
2022/05/20 07:34:48;;;;;;;0.15;0.15;;;24.00;95.00;;;;;;5047470;28;20395;-86
2022/05/20 07:37:14;;;;;;;0.10;0.10;;;23.90;92.20;;;;;;5040453;28;20052;-87
2022/05/20 07:39:40;;;;;;;1.45;1.23;;;23.80;94.10;;;;;;5046067;28;20773;-86
2022/05/20 07:42:06;;;;;;;0.30;0.30;;;24.10;93.60;;;;;;5044892;28;20052;-86
2022/05/20 07:44:33;;;;;;;0.82;0.70;;;24.30;93.70;;;;;;5027656;28;20086;-86
2022/05/20 07:46:59;;;;;;;0.20;0.20;;;24.50;93.90;;;;;;5040032;28;20046;-86
2022/05/20 07:49:25;;;;;;;0.45;0.40;;;25.10;92.50;;;;;;5010481;28;20044;-83
2022/05/20 07:51:55;;;;;;;0.00;0.00;;;25.40;92.50;;;;;;5041732;28;20071;-85
2022/05/20 07:54:25;;;;;;;0.38;0.35;;;25.30;91.50;;;;;;5042764;28;20045;-84
2022/05/20 07:56:59;;;;;;;0.52;0.47;;;24.80;91.40;;;;;;5062322;28;20040;-84
2022/05/20 07:59:30;;;;;;;0.10;0.10;;;24.30;89.90;;;;;;5045191;28;20487;-84
2022/05/20 08:01:57;;;;;;;0.10;0.10;;;24.30;90.40;;;;;;5043281;28;20036;-84
2022/05/20 08:04:55;;;;;;;0.10;0.10;;;24.00;91.50;;;;;;5042130;28;20044;-84
2022/05/20 08:07:29;;;;;;;0.43;0.43;;;23.50;90.70;;;;;;5045058;28;20141;-85
2022/05/20 08:09:55;;;;;;;1.45;0.25;;;23.50;91.50;;;;;;5063066;28;20044;-85
2022/05/20 08:12:21;;;;;;;0.28;0.28;;;23.30;93.00;;;;;;5059974;28;20490;-86
2022/05/20 08:14:48;;;;;;;0.55;0.55;;;23.10;91.70;;;;;;5044700;28;20049;-86
2022/05/20 08:17:15;;;;;;;0.10;0.10;;;22.80;93.20;;;;;;5041432;28;20045;-82
2022/05/20 08:19:41;;;;;;;0.55;0.20;;;22.10;92.80;;;;;;5059832;28;20048;-82
2022/05/20 08:22:07;;;;;;;0.47;0.47;;;22.00;93.50;;;;;;5044784;28;20040;-88
2022/05/20 08:24:33;;;;;;;0.10;0.10;;;21.90;93.60;;;;;;5044123;28;20101;-88
2022/05/20 08:26:58;;;;;;;0.20;0.20;;;21.70;94.50;;;;;;5045422;28;20040;-88
2022/05/20 08:29:24;;;;;;;0.20;0.20;;;21.60;94.90;;;;;;5044329;28;20398;-88
2022/05/20 08:31:50;;;;;;;0.38;0.38;;;21.60;95.40;;;;;;5043400;28;20105;-89
2022/05/20 08:34:16;;;;;;;0.32;0.32;;;21.80;93.00;;;;;;5044906;22;20050;-83
2022/05/20 08:36:42;;;;;;;0.10;0.10;;;22.00;93.30;;;;;;4987550;28;20506;-85
2022/05/20 08:39:12;;;;;;;0.10;0.10;;;22.40;93.10;;;;;;5003069;28;20042;-82
2022/05/20 08:41:41;;;;;;;0.13;0.13;;;22.40;92.40;;;;;;5005932;28;20045;-82
2022/05/20 08:44:12;;;;;;;0.20;0.20;;;22.20;93.30;;;;;;5008110;28;20079;-82
2022/05/20 08:46:40;;;;;;;1.08;0.85;;;22.10;93.40;;;;;;5007293;28;20440;-83
2022/05/20 08:49:10;;;;;;;0.10;0.10;;;22.20;94.30;;;;;;5007066;28;20053;-82
2022/05/20 08:51:39;;;;;;;0.30;0.30;;;22.60;94.30;;;;;;5022443;28;20073;-82
2022/05/20 08:54:05;;;;;;;0.08;0.08;;;23.10;93.30;;;;;;5007289;28;20077;-82
2022/05/20 08:56:31;;;;;;;0.10;0.10;;;23.80;92.60;;;;;;5028526;28;20065;-84
2022/05/20 08:59:03;;;;;;;0.10;0.10;;;23.50;91.60;;;;;;4977721;28;20040;-84
2022/05/20 09:01:33;;;;;;;0.10;0.10;;;24.10;91.80;;;;;;5027855;28;20110;-85
2022/05/20 09:04:00;;;;;;;0.17;0.17;;;24.10;90.90;;;;;;4995664;28;20556;-84
2022/05/20 09:06:27;;;;;;;1.52;1.10;;;24.40;87.60;;;;;;5007739;28;20088;-84
2022/05/20 09:09:13;;;;;;;0.20;0.20;;;24.30;87.80;;;;;;5006541;28;20128;-84
2022/05/20 09:11:42;;;;;;;0.10;0.10;;;24.00;89.00;;;;;;5006777;28;20036;-86
2022/05/20 09:17:23;;;;;;;0.10;0.10;;;24.40;88.10;;;;;;5008973;28;20045;-87
2022/05/20 09:19:56;;;;;;;3.75;0.52;;;24.10;87.90;;;;;;5026071;28;20399;-86
2022/05/20 09:22:30;;;;;;;1.02;0.85;;;23.80;90.00;;;;;;5009242;28;20037;-86
2022/05/20 09:24:57;;;;;;;0.25;0.25;;;23.40;86.60;;;;;;5024647;28;20503;-87
2022/05/20 09:27:32;;;;;;;0.13;0.13;;;23.40;91.20;;;;;;5007183;28;20716;-87
2022/05/20 09:30:05;;;;;;;0.20;0.20;;;23.40;90.20;;;;;;5009161;28;20080;-82
2022/05/20 09:32:53;;;;;;;0.10;0.10;;;23.30;89.00;;;;;;5008017;28;20124;-82
2022/05/20 09:35:19;;;;;;;0.60;0.50;;;23.10;85.50;;;;;;5023306;28;20124;-82
2022/05/20 09:37:47;;;;;;;0.20;0.20;;;23.20;87.80;;;;;;4995637;28;20160;-82
2022/05/20 09:40:33;;;;;;;0.22;0.22;;;23.20;86.80;;;;;;5008227;28;20140;-82
2022/05/20 09:43:07;;;;;;;;;;;23.00;86.10;;;;;;5008195;28;20080;-82
2022/05/20 09:45:49;;;;;;;0.17;0.17;;;22.60;86.30;;;;;;5007436;28;19928;-85
2022/05/20 09:48:47;;;;;;;0.50;0.50;;;22.60;88.90;;;;;;5007237;28;20501;-85
2022/05/20 09:51:15;;;;;;;0.13;0.13;;;22.10;90.40;;;;;;5019706;28;20133;-86
2022/05/20 09:53:44;;;;;;;0.13;0.13;;;21.80;90.60;;;;;;5022532;28;20095;-85
2022/05/20 09:56:22;;;;;;;0.30;0.30;;;21.70;92.40;;;;;;4993891;28;20088;-84
2022/05/20 09:59:25;;;;;;;2.97;0.82;;;21.50;90.60;;;;;;4990911;28;20041;-84
2022/05/20 10:02:01;;;;;;;0.20;0.20;;;21.20;90.80;;;;;;4992176;28;20515;-85
2022/05/20 10:04:36;;;;;;;;;;;20.90;90.00;;;;;;5025105;28;20215;-83
2022/05/20 10:07:06;;;;;;;0.00;0.00;;;20.80;91.10;;;;;;5023100;28;19917;-83
2022/05/20 10:09:53;;;;;;;0.32;0.32;;;20.80;91.00;;;;;;5008960;28;20037;-83
2022/05/20 10:12:33;;;;;;;0.43;0.43;;;20.70;92.20;;;;;;5008880;28;20392;-83
2022/05/20 10:15:14;;;;;;;0.25;0.25;;;20.60;90.50;;;;;;4991947;28;20492;-83
2022/05/20 10:18:05;;;;;;;0.40;0.40;;;20.60;91.70;;;;;;5024258;28;20061;-82
2022/05/20 10:20:38;;;;;;;0.10;0.10;;;20.70;91.50;;;;;;5007121;28;20775;-84
2022/05/20 10:23:29;;;;;;;0.38;0.38;;;20.80;92.30;;;;;;5001876;28;20751;-84
2022/05/20 10:26:14;;;;;;;0.30;0.30;;;20.70;92.20;;;;;;5008936;28;20123;-84
2022/05/20 10:34:52;;;;;;;0.70;0.70;;;21.30;92.00;;;;;;5008751;28;20049;-86
2022/05/20 10:37:33;;;;;;;0.20;0.10;;;21.30;89.80;;;;;;5021079;28;20048;-86
2022/05/20 10:40:18;;;;;;;0.08;0.08;;;21.50;90.60;;;;;;5007530;28;20037;-86
2022/05/20 10:43:15;;;;;;;0.10;0.10;;;21.60;89.40;;;;;;5027735;28;20484;-86
2022/05/20 10:48:34;;;;;;;0.08;0.08;;;21.50;90.40;;;;;;5025683;28;19952;-86
2022/05/20 10:51:18;;;;;;;0.00;0.00;;;21.30;86.40;;;;;;5009996;28;20038;-86
2022/05/20 10:53:50;;;;;;;0.32;0.32;;;21.50;87.30;;;;;;5012809;28;20037;-90
2022/05/20 10:56:47;;;;;;;0.20;0.20;;;21.40;89.70;;;;;;4994344;28;20084;-91
2022/05/20 10:59:19;;;;;;;0.30;0.30;;;21.40;90.20;;;;;;5024773;28;20396;-91
2022/05/20 11:02:29;;;;;;;0.40;0.40;;;21.30;91.10;;;;;;5028367;28;20045;-90
2022/05/20 11:05:19;;;;;;;0.20;0.20;;;21.40;91.20;;;;;;5025411;28;20044;-91
2022/05/20 11:07:54;;;;;;;0.20;0.20;;;21.40;91.60;;;;;;4999622;28;20038;-90
2022/05/20 11:10:31;;;;;;;0.70;0.35;;;21.40;90.00;;;;;;5015303;28;20052;-82
2022/05/20 11:13:12;;;;;;;0.10;0.10;;;21.50;90.60;;;;;;5008836;28;20037;-82
2022/05/20 11:15:55;;;;;;;1.65;1.55;;;21.60;91.40;;;;;;5008858;28;20484;-82
2022/05/20 11:18:26;;;;;;;0.30;0.30;;;21.60;90.90;;;;;;5022208;28;20466;-82
2022/05/20 11:21:19;;;;;;;0.10;0.10;;;21.80;89.80;;;;;;5007965;28;20037;-82
2022/05/20 11:23:56;;;;;;;0.40;0.35;;;21.80;89.90;;;;;;5010162;28;20373;-82
2022/05/20 11:26:34;;;;;;;0.25;0.25;;;21.80;89.00;;;;;;4991471;28;20049;-84
2022/05/20 11:29:12;;;;;;;0.20;0.20;;;21.70;88.00;;;;;;5007213;28;20487;-83
2022/05/20 11:32:25;;;;;;;0.43;0.30;;;21.60;87.60;;;;;;5003151;28;20380;-83
2022/05/20 11:35:02;;;;;;;0.10;0.10;;;21.50;86.00;;;;;;4929922;29;20051;-82
2022/05/20 11:37:53;;;;;;;0.17;0.17;;;21.50;84.10;;;;;;5002913;28;20046;-83
2022/05/20 11:40:52;;;;;;;0.25;0.25;;;21.50;86.60;;;;;;5006867;28;20395;-83
2022/05/20 11:43:39;;;;;;;0.00;0.00;;;21.50;86.00;;;;;;5009344;28;20050;-83
2022/05/20 11:46:17;;;;;;;0.20;0.20;;;21.60;86.10;;;;;;5001839;28;20068;-82
2022/05/20 11:49:00;;;;;;;1.15;0.63;;;21.60;90.00;;;;;;5005358;28;20045;-83
2022/05/20 11:52:06;;;;;;;0.00;0.00;;;21.70;85.70;;;;;;5018224;28;20050;-83
2022/05/20 11:54:39;;;;;;;0.77;0.77;;;21.70;86.20;;;;;;5002885;28;20041;-83
2022/05/20 11:57:10;;;;;;;0.15;0.15;;;21.70;87.30;;;;;;5022736;28;20112;-84
2022/05/20 11:59:56;;;;;;;0.65;0.57;;;21.70;88.30;;;;;;5018447;28;20037;-84
2022/05/20 12:02:24;;;;;;;0.03;0.03;;;21.70;89.40;;;;;;5026145;28;20037;-85
2022/05/20 12:04:50;;;;;;;0.30;0.30;;;21.80;89.10;;;;;;5015243;28;20041;-85
2022/05/20 12:07:20;;;;;;;0.17;0.17;;;21.80;90.90;;;;;;4982833;28;20033;-85
2022/05/20 12:09:52;;;;;;;0.30;0.25;;;21.80;90.00;;;;;;5015080;28;20034;-84
2022/05/20 12:12:30;;;;;;;0.10;0.10;;;21.60;88.30;;;;;;4998537;28;20449;-85
2022/05/20 12:15:07;;;;;;;0.43;0.40;;;21.50;87.40;;;;;;5014988;28;20048;-85
2022/05/20 12:17:53;;;;;;;0.38;0.38;;;21.50;90.10;;;;;;5028785;28;20076;-84
2022/05/20 12:24:12;;;;;;;0.65;0.65;;;21.70;88.90;;;;;;5019738;28;20041;-84
2022/05/20 12:26:07;;;;;;;0.20;0.20;;;21.60;87.20;;;;;;5029082;28;20045;-84
2022/05/20 12:28:39;;;;;;;0.75;0.75;;;21.70;88.50;;;;;;5007507;28;20512;-84
2022/05/20 12:31:12;;;;;;;0.10;0.10;;;22.10;89.60;;;;;;5029205;28;20084;-84
2022/05/20 12:34:03;;;;;;;0.13;0.13;;;22.50;90.20;;;;;;4997856;28;20119;-84
2022/05/20 12:36:28;;;;;;;0.05;0.05;;;22.40;86.60;;;;;;5017509;28;20134;-84
2022/05/20 12:39:19;;;;;;;0.70;0.70;;;22.30;89.90;;;;;;5001716;28;20124;-84
2022/05/20 12:41:47;;;;;;;0.20;0.20;;;22.30;88.60;;;;;;5002086;28;20450;-84
2022/05/20 12:44:16;;;;;;;0.35;0.35;;;22.50;87.80;;;;;;5025693;28;20102;-84
2022/05/20 12:47:01;;;;;;;0.00;0.00;;;22.60;90.10;;;;;;5033265;28;20394;-84
2022/05/20 12:49:36;;;;;;;0.30;0.30;;;23.00;87.90;;;;;;5024048;28;20084;-84
2022/05/20 12:52:21;;;;;;;0.20;0.20;;;22.90;91.00;;;;;;5024005;28;20045;-85
2022/05/20 12:54:54;;;;;;;0.57;0.43;;;22.80;88.00;;;;;;5008961;28;20124;-85
2022/05/20 12:57:33;;;;;;;0.08;0.08;;;23.00;86.00;;;;;;5031884;28;20176;-85
2022/05/20 13:00:08;;;;;;;0.00;0.00;;;22.70;84.30;;;;;;5016963;28;20049;-85
2022/05/20 13:02:44;;;;;;;0.20;0.20;;;22.40;84.90;;;;;;5032093;28;20037;-85
2022/05/20 13:05:27;;;;;;;0.10;0.10;;;22.00;84.80;;;;;;5003629;28;20049;-85
2022/05/20 13:07:55;;;;;;;0.10;0.10;;;21.60;85.90;;;;;;5023063;28;20037;-84
2022/05/20 13:10:35;;;;;;;0.22;0.22;;;21.10;86.00;;;;;;5006557;28;20042;-84
2022/05/20 13:13:13;;;;;;;0.28;0.28;;;20.80;87.50;;;;;;5023518;28;20041;-84
2022/05/20 13:16:00;;;;;;;0.03;0.03;;;20.50;86.00;;;;;;5012620;28;20042;-83
2022/05/20 13:18:29;;;;;;;0.00;0.00;;;20.30;89.60;;;;;;5014105;28;20040;-83
2022/05/20 13:21:01;;;;;;;0.10;0.10;;;20.30;89.50;;;;;;5023302;28;20041;-83
2022/05/20 13:23:27;;;;;;;0.00;0.00;;;20.00;88.70;;;;;;5010383;28;20066;-83
2022/05/20 13:25:53;;;;;;;0.10;0.10;;;20.00;90.40;;;;;;4995797;28;20084;-83
2022/05/20 13:28:37;;;;;;;0.17;0.17;;;20.00;91.50;;;;;;5030537;28;20041;-83
2022/05/20 13:31:12;;;;;;;0.20;0.20;;;19.90;92.20;;;;;;5031275;28;20553;-83
2022/05/20 13:33:42;;;;;;;12.83;0.30;;;19.90;94.00;;;;;;5009688;28;20095;-83
2022/05/20 13:36:12;;;;;;;0.17;0.17;;;19.70;92.70;;;;;;5023393;28;20782;-83
2022/05/20 13:38:45;;;;;;;0.00;0.00;;;19.60;92.00;;;;;;5019068;28;20041;-92
2022/05/20 13:41:11;;;;;;;0.20;0.20;;;19.50;92.00;;;;;;5030840;28;20037;-92
2022/05/20 13:43:40;;;;;;;0.00;0.00;;;19.40;97.40;;;;;;5003175;28;20073;-92